createdAt,value
2022-12-24T00:02:02.093Z,5.28
2022-12-24T00:04:29.078Z,6.60
2022-12-24T00:06:55.731Z,6.75
2022-12-24T00:09:24.917Z,5.03
2022-12-24T00:11:54.740Z,6.00
2022-12-24T00:14:23.957Z,8.40
2022-12-24T00:16:53.054Z,4.53
2022-12-24T00:19:19.847Z,6.22
2022-12-24T00:21:46.577Z,3.50
2022-12-24T00:24:15.215Z,5.90
2022-12-24T00:26:44.326Z,7.93
2022-12-24T00:29:12.316Z,6.45
2022-12-24T00:31:44.210Z,5.57
2022-12-24T00:34:18.516Z,7.53
2022-12-24T00:36:45.222Z,4.45
2022-12-24T00:39:14.189Z,5.40
2022-12-24T00:41:42.077Z,6.10
2022-12-24T00:44:12.586Z,8.32
2022-12-24T00:46:41.221Z,6.68
2022-12-24T00:49:09.277Z,5.07
2022-12-24T00:51:37.199Z,6.90
2022-12-24T00:54:06.934Z,7.20
2022-12-24T00:56:33.785Z,5.35
2022-12-24T00:59:01.150Z,8.30
2022-12-24T01:01:33.290Z,4.63
2022-12-24T01:04:18.913Z,5.35
2022-12-24T01:06:48.469Z,5.30
2022-12-24T01:09:23.101Z,7.18
2022-12-24T01:11:50.079Z,3.00
2022-12-24T01:14:16.906Z,4.45
2022-12-24T01:16:43.587Z,6.00
2022-12-24T01:19:10.848Z,6.00
2022-12-24T01:21:39.693Z,6.43
2022-12-24T01:24:06.806Z,6.22
2022-12-24T01:26:33.536Z,4.35
2022-12-24T01:29:02.855Z,5.53
2022-12-24T01:31:29.709Z,6.30
2022-12-24T01:33:58.140Z,3.50
2022-12-24T01:36:34.911Z,3.38
2022-12-24T01:39:03.862Z,6.55
2022-12-24T01:41:51.291Z,7.25
2022-12-24T01:44:36.511Z,4.97
2022-12-24T01:47:12.339Z,4.45
2022-12-24T01:49:47.991Z,6.90
2022-12-24T01:52:22.822Z,9.13
2022-12-24T01:54:56.486Z,4.57
2022-12-24T01:57:27.904Z,5.35
2022-12-24T01:59:58.411Z,4.22
2022-12-24T02:02:26.076Z,5.47
2022-12-24T02:05:10.124Z,5.68
2022-12-24T02:07:37.498Z,4.72
2022-12-24T02:10:10.691Z,7.20
2022-12-24T02:12:41.299Z,6.13
2022-12-24T02:15:10.342Z,5.68
2022-12-24T02:17:37.020Z,5.63
2022-12-24T02:20:24.868Z,5.18
2022-12-24T02:23:15.624Z,6.85
2022-12-24T02:25:47.589Z,5.80
2022-12-24T02:30:59.630Z,9.20
2022-12-24T02:34:05.902Z,5.63
2022-12-24T02:36:48.314Z,12.23
2022-12-24T02:39:23.959Z,10.80
2022-12-24T02:42:06.553Z,8.88
2022-12-24T02:45:08.653Z,6.90
2022-12-24T02:47:36.194Z,6.47
2022-12-24T02:50:07.429Z,11.60
2022-12-24T02:52:38.746Z,7.32
2022-12-24T02:55:08.521Z,5.63
2022-12-24T02:58:06.276Z,9.93
2022-12-24T03:01:16.324Z,11.85
2022-12-24T03:04:04.335Z,11.18
2022-12-24T03:06:49.313Z,9.48
2022-12-24T03:09:24.977Z,9.90
2022-12-24T03:11:59.780Z,13.27
2022-12-24T03:14:28.001Z,12.05
2022-12-24T03:16:58.363Z,9.43
2022-12-24T03:19:27.940Z,11.13
2022-12-24T03:21:59.472Z,10.88
2022-12-24T03:24:26.347Z,8.63
2022-12-24T03:26:59.323Z,14.30
2022-12-24T03:29:28.599Z,12.38
2022-12-24T03:32:03.929Z,11.95
2022-12-24T03:34:31.276Z,9.98
2022-12-24T03:36:59.144Z,11.90
2022-12-24T03:39:25.884Z,14.45
2022-12-24T03:41:52.640Z,9.25
2022-12-24T03:44:19.326Z,12.82
2022-12-24T03:46:49.259Z,10.32
2022-12-24T03:49:15.937Z,11.70
2022-12-24T03:51:45.194Z,11.80
2022-12-24T03:54:11.953Z,16.17
2022-12-24T03:56:38.601Z,10.25
2022-12-24T03:59:05.369Z,14.38
2022-12-24T04:01:32.213Z,14.13
2022-12-24T04:04:01.195Z,16.58
2022-12-24T04:06:28.010Z,11.93
2022-12-24T04:08:54.695Z,17.25
2022-12-24T04:11:21.465Z,16.63
2022-12-24T04:13:48.243Z,13.27
2022-12-24T04:16:17.150Z,10.65
2022-12-24T04:18:44.283Z,13.40
2022-12-24T04:21:13.895Z,10.50
2022-12-24T04:23:43.405Z,14.85
2022-12-24T04:26:14.918Z,10.77
2022-12-24T04:28:42.651Z,13.07
2022-12-24T04:31:12.686Z,20.77
2022-12-24T04:33:39.509Z,12.98
2022-12-24T04:36:07.920Z,11.90
2022-12-24T04:38:35.358Z,13.23
2022-12-24T04:41:08.112Z,16.13
2022-12-24T04:43:37.968Z,11.05
2022-12-24T04:46:18.627Z,16.23
2022-12-24T04:48:47.281Z,14.90
2022-12-24T04:51:15.126Z,9.05
2022-12-24T04:53:42.832Z,14.63
2022-12-24T04:56:15.627Z,10.40
2022-12-24T04:58:42.627Z,11.82
2022-12-24T05:01:13.519Z,14.55
2022-12-24T05:03:40.345Z,11.57
2022-12-24T05:06:11.484Z,12.77
2022-12-24T05:08:41.077Z,14.27
2022-12-24T05:11:10.468Z,18.58
2022-12-24T05:13:46.196Z,16.88
2022-12-24T05:16:15.297Z,14.40
2022-12-24T05:18:42.057Z,18.77
2022-12-24T05:21:15.069Z,11.65
2022-12-24T05:24:02.890Z,9.23
2022-12-24T05:26:42.723Z,11.40
2022-12-24T05:29:12.294Z,13.25
2022-12-24T05:31:40.259Z,11.20
2022-12-24T05:34:10.585Z,10.55
2022-12-24T05:36:37.638Z,10.82
2022-12-24T05:39:07.256Z,15.55
2022-12-24T05:41:36.657Z,11.85
2022-12-24T05:44:03.407Z,14.63
2022-12-24T05:46:32.314Z,12.95
2022-12-24T05:49:01.528Z,11.10
2022-12-24T05:51:28.233Z,11.30
2022-12-24T05:53:54.942Z,21.45
2022-12-24T05:56:26.597Z,17.67
2022-12-24T05:58:54.700Z,20.30
2022-12-24T06:01:24.992Z,13.50
2022-12-24T06:03:54.296Z,18.63
2022-12-24T06:06:26.918Z,12.85
2022-12-24T06:08:54.824Z,22.90
2022-12-24T06:11:24.131Z,27.75
2022-12-24T06:13:53.581Z,23.05
2022-12-24T06:16:23.039Z,24.67
2022-12-24T06:18:52.647Z,13.38
2022-12-24T06:21:23.824Z,7.45
2022-12-24T06:23:52.957Z,16.27
2022-12-24T06:26:22.787Z,14.18
2022-12-24T06:28:51.031Z,14.60
2022-12-24T06:31:20.410Z,16.42
2022-12-24T06:33:47.373Z,14.85
2022-12-24T06:36:17.869Z,14.25
2022-12-24T06:38:48.764Z,12.10
2022-12-24T06:41:18.733Z,10.43
2022-12-24T06:43:47.224Z,10.52
2022-12-24T06:46:14.793Z,13.48
2022-12-24T06:48:42.360Z,14.38
2022-12-24T06:51:09.085Z,15.57
2022-12-24T06:53:35.839Z,15.25
2022-12-24T06:56:03.275Z,9.98
2022-12-24T06:58:32.557Z,22.92
2022-12-24T07:01:02.620Z,12.90
2022-12-24T07:03:31.990Z,23.58
2022-12-24T07:05:58.923Z,25.48
2022-12-24T07:08:28.047Z,33.17
2022-12-24T07:10:54.893Z,38.75
2022-12-24T07:13:21.781Z,32.03
2022-12-24T07:16:03.149Z,27.88
2022-12-24T07:18:30.808Z,23.48
2022-12-24T07:20:58.096Z,28.02
2022-12-24T07:23:27.177Z,20.50
2022-12-24T07:25:53.892Z,14.55
2022-12-24T07:28:28.037Z,14.68
2022-12-24T07:30:56.342Z,10.75
2022-12-24T07:33:26.379Z,13.10
2022-12-24T07:36:06.118Z,8.73
2022-12-24T07:38:36.285Z,12.75
2022-12-24T07:41:05.318Z,7.63
2022-12-24T07:43:35.289Z,16.83
2022-12-24T07:46:02.370Z,21.10
2022-12-24T07:48:32.967Z,8.52
2022-12-24T07:51:02.959Z,9.32
2022-12-24T07:53:30.177Z,9.35
2022-12-24T07:55:59.689Z,7.80
2022-12-24T07:58:29.379Z,8.70
2022-12-24T08:01:00.773Z,7.93
2022-12-24T08:03:28.062Z,8.60
2022-12-24T08:05:55.235Z,23.75
2022-12-24T08:08:24.139Z,8.13
2022-12-24T08:10:53.166Z,8.85
2022-12-24T08:13:20.024Z,9.50
2022-12-24T08:15:46.841Z,11.75
2022-12-24T08:18:13.609Z,11.82
2022-12-24T08:20:41.352Z,13.00
2022-12-24T08:23:08.737Z,13.18
2022-12-24T08:25:36.098Z,9.18
2022-12-24T08:28:05.731Z,6.25
2022-12-24T08:30:35.139Z,11.35
2022-12-24T08:33:02.134Z,7.82
2022-12-24T08:35:29.045Z,11.82
2022-12-24T08:37:55.911Z,10.73
2022-12-24T08:40:28.104Z,10.80
2022-12-24T08:42:55.223Z,9.73
2022-12-24T08:45:25.911Z,21.75
2022-12-24T08:47:55.113Z,11.90
2022-12-24T08:50:21.839Z,12.07
2022-12-24T08:52:48.558Z,9.35
2022-12-24T08:55:20.884Z,7.07
2022-12-24T08:57:47.683Z,9.90
2022-12-24T09:00:15.095Z,9.18
2022-12-24T09:02:44.223Z,6.13
2022-12-24T09:05:17.753Z,9.02
2022-12-24T09:07:45.006Z,10.68
2022-12-24T09:10:18.622Z,7.07
2022-12-24T09:12:45.445Z,11.95
2022-12-24T09:15:14.606Z,8.25
2022-12-24T09:17:44.001Z,8.45
2022-12-24T09:20:11.055Z,5.82
2022-12-24T09:22:39.347Z,8.63
2022-12-24T09:25:07.215Z,8.63
2022-12-24T09:27:36.544Z,5.78
2022-12-24T09:30:04.417Z,9.18
2022-12-24T09:32:31.138Z,7.60
2022-12-24T09:35:00.996Z,8.00
2022-12-24T09:37:30.283Z,11.68
2022-12-24T09:39:57.006Z,8.32
2022-12-24T09:43:02.968Z,13.02
2022-12-24T09:45:37.575Z,7.65
2022-12-24T09:48:14.147Z,13.13
2022-12-24T09:50:56.793Z,6.38
2022-12-24T09:53:41.759Z,10.95
2022-12-24T09:56:33.123Z,10.80
2022-12-24T09:59:02.702Z,10.95
2022-12-24T10:01:34.311Z,8.70
2022-12-24T10:04:09.969Z,10.68
2022-12-24T10:07:05.143Z,7.22
2022-12-24T10:10:02.809Z,6.00
2022-12-24T10:12:54.157Z,13.73
2022-12-24T10:15:24.915Z,11.40
2022-12-24T10:18:19.033Z,10.05
2022-12-24T10:20:57.819Z,10.20
2022-12-24T10:23:47.980Z,8.80
2022-12-24T10:26:35.595Z,6.78
2022-12-24T10:29:36.057Z,14.48
2022-12-24T10:32:08.517Z,10.52
2022-12-24T10:34:52.443Z,13.57
2022-12-24T10:37:29.985Z,12.63
2022-12-24T10:39:59.278Z,14.38
2022-12-24T10:42:50.359Z,11.13
2022-12-24T10:45:23.156Z,15.82
2022-12-24T10:47:54.542Z,8.65
2022-12-24T10:50:36.500Z,13.07
2022-12-24T10:53:44.350Z,8.15
2022-12-24T10:56:17.139Z,8.30
2022-12-24T10:58:55.046Z,11.10
2022-12-24T11:01:46.125Z,10.27
2022-12-24T11:04:32.931Z,10.85
2022-12-24T11:07:02.575Z,17.35
2022-12-24T11:09:34.885Z,9.98
2022-12-24T11:12:08.904Z,7.82
2022-12-24T11:14:38.646Z,9.00
2022-12-24T11:17:08.037Z,5.95
2022-12-24T11:19:40.979Z,6.88
2022-12-24T11:22:18.012Z,10.63
2022-12-24T11:24:50.071Z,8.18
2022-12-24T11:27:49.730Z,9.95
2022-12-24T11:30:18.687Z,9.20
2022-12-24T11:33:08.181Z,8.98
2022-12-24T11:35:45.951Z,12.93
2022-12-24T11:38:19.487Z,6.20
2022-12-24T11:41:01.959Z,9.52
2022-12-24T11:43:45.801Z,6.95
2022-12-24T11:46:17.202Z,7.43
2022-12-24T11:48:44.731Z,8.07
2022-12-24T11:51:27.683Z,7.05
2022-12-24T11:54:19.268Z,5.15
2022-12-24T11:56:57.230Z,6.70
2022-12-24T11:59:27.042Z,8.85
2022-12-24T12:02:26.784Z,6.45
2022-12-24T12:05:05.640Z,7.20
2022-12-24T12:07:36.698Z,9.70
2022-12-24T12:10:22.284Z,7.10
2022-12-24T12:13:11.161Z,9.40
2022-12-24T12:15:52.111Z,9.18
2022-12-24T12:18:29.087Z,6.28
2022-12-24T12:21:04.833Z,10.57
2022-12-24T12:23:43.020Z,7.25
2022-12-24T12:26:27.591Z,8.75
2022-12-24T12:29:12.457Z,10.30
2022-12-24T12:31:39.266Z,6.47
2022-12-24T12:34:41.333Z,8.70
2022-12-24T12:37:15.241Z,15.85
2022-12-24T12:39:42.708Z,8.15
2022-12-24T12:42:32.457Z,8.98
2022-12-24T12:45:20.507Z,10.10
2022-12-24T12:48:05.895Z,9.02
2022-12-24T12:50:58.410Z,10.50
2022-12-24T12:53:25.081Z,14.10
2022-12-24T12:56:00.971Z,7.68
2022-12-24T12:58:48.972Z,6.93
2022-12-24T13:01:50.994Z,9.45
2022-12-24T13:04:29.539Z,12.80
2022-12-24T13:06:56.225Z,7.68
2022-12-24T13:09:37.832Z,7.70
2022-12-24T13:12:25.553Z,9.02
2022-12-24T13:15:10.567Z,8.88
2022-12-24T13:18:00.773Z,7.05
2022-12-24T13:20:36.860Z,7.35
2022-12-24T13:23:13.399Z,6.53
2022-12-24T13:25:49.454Z,7.07
2022-12-24T13:28:25.126Z,4.95
2022-12-24T13:31:14.220Z,10.25
2022-12-24T13:33:40.917Z,7.85
2022-12-24T13:36:19.103Z,6.88
2022-12-24T13:38:51.931Z,7.65
2022-12-24T13:41:39.232Z,9.35
2022-12-24T13:44:14.971Z,11.23
2022-12-24T13:47:13.630Z,10.45
2022-12-24T13:49:48.603Z,12.07
2022-12-24T13:52:23.486Z,11.27
2022-12-24T13:54:54.427Z,9.13
2022-12-24T13:57:44.699Z,9.50
2022-12-24T14:00:35.721Z,8.50
2022-12-24T14:03:14.615Z,6.47
2022-12-24T14:05:44.335Z,6.07
2022-12-24T14:08:14.552Z,11.73
2022-12-24T14:10:56.242Z,11.20
2022-12-24T14:13:38.168Z,8.23
2022-12-24T14:16:05.141Z,11.45
2022-12-24T14:18:35.390Z,10.45
2022-12-24T14:21:03.154Z,7.03
2022-12-24T14:23:49.636Z,12.93
2022-12-24T14:26:19.396Z,7.13
2022-12-24T14:29:03.345Z,11.63
2022-12-24T14:31:32.659Z,8.07
2022-12-24T14:34:15.432Z,6.10
2022-12-24T14:36:44.501Z,13.55
2022-12-24T14:39:36.946Z,11.25
2022-12-24T14:42:21.761Z,10.73
2022-12-24T14:45:27.314Z,9.98
2022-12-24T14:48:07.677Z,6.20
2022-12-24T14:50:39.941Z,8.98
2022-12-24T14:53:25.622Z,10.20
2022-12-24T14:55:54.497Z,12.57
2022-12-24T14:58:24.049Z,7.65
2022-12-24T15:00:51.945Z,12.68
2022-12-24T15:03:21.491Z,8.68
2022-12-24T15:05:54.255Z,7.78
2022-12-24T15:08:35.977Z,9.95
2022-12-24T15:11:07.484Z,12.38
2022-12-24T15:13:42.577Z,11.35
2022-12-24T15:16:14.630Z,7.97
2022-12-24T15:18:59.504Z,33.88
2022-12-24T15:21:37.517Z,39.88
2022-12-24T15:24:07.364Z,16.98
2022-12-24T15:26:36.599Z,8.35
2022-12-24T15:29:21.195Z,10.32
2022-12-24T15:31:58.763Z,9.60
2022-12-24T15:34:37.265Z,9.85
2022-12-24T15:37:18.358Z,9.38
2022-12-24T15:39:53.215Z,6.35
2022-12-24T15:42:22.755Z,8.10
2022-12-24T15:44:58.431Z,9.55
2022-12-24T15:47:38.565Z,7.20
2022-12-24T15:50:16.321Z,5.45
2022-12-24T15:52:44.592Z,10.02
2022-12-24T15:55:40.123Z,9.73
2022-12-24T15:58:24.049Z,6.72
2022-12-24T16:01:09.466Z,13.00
2022-12-24T16:03:39.242Z,6.90
2022-12-24T16:06:12.299Z,18.30
2022-12-24T16:08:40.549Z,6.97
2022-12-24T16:11:28.517Z,7.40
2022-12-24T16:14:14.255Z,7.45
2022-12-24T16:16:46.269Z,7.78
2022-12-24T16:22:29.820Z,10.82
2022-12-24T16:24:59.129Z,13.98
2022-12-24T16:27:26.155Z,11.23
2022-12-24T16:29:53.018Z,11.15
2022-12-24T16:32:39.647Z,10.57
2022-12-24T16:35:24.816Z,15.77
2022-12-24T16:37:54.481Z,7.70
2022-12-24T16:40:27.949Z,9.02
2022-12-24T16:43:16.944Z,4.53
2022-12-24T16:45:45.037Z,18.83
2022-12-24T16:48:22.391Z,28.02
2022-12-24T16:50:52.378Z,15.23
2022-12-24T16:53:20.930Z,14.10
2022-12-24T16:55:51.564Z,8.07
2022-12-24T16:58:20.040Z,5.53
2022-12-24T17:00:47.325Z,4.35
2022-12-24T17:03:14.511Z,5.18
2022-12-24T17:05:45.294Z,11.38
2022-12-24T17:08:14.607Z,6.22
2022-12-24T17:10:51.632Z,11.80
2022-12-24T17:13:20.571Z,10.45
2022-12-24T17:15:49.492Z,6.70
2022-12-24T17:18:19.322Z,7.43
2022-12-24T17:21:03.651Z,7.13
2022-12-24T17:23:30.514Z,5.10
2022-12-24T17:25:58.175Z,4.38
2022-12-24T17:28:27.397Z,5.68
2022-12-24T17:30:54.186Z,4.72
2022-12-24T17:33:21.028Z,5.47
2022-12-24T17:35:49.253Z,4.25
2022-12-24T17:38:16.013Z,6.70
2022-12-24T17:40:45.148Z,6.40
2022-12-24T17:43:16.512Z,6.07
2022-12-24T17:45:43.523Z,4.28
2022-12-24T17:48:10.301Z,6.50
2022-12-24T17:50:42.401Z,13.05
2022-12-24T17:53:09.224Z,12.32
2022-12-24T17:55:43.031Z,8.57
2022-12-24T17:58:15.007Z,5.57
2022-12-24T18:00:42.445Z,5.20
2022-12-24T18:03:14.087Z,6.43
2022-12-24T18:05:40.972Z,3.90
2022-12-24T18:08:07.803Z,3.47
2022-12-24T18:10:37.013Z,6.50
2022-12-24T18:13:06.924Z,4.50
2022-12-24T18:15:35.714Z,4.47
2022-12-24T18:18:02.759Z,3.53
2022-12-24T18:20:30.244Z,7.18
2022-12-24T18:22:59.531Z,4.15
2022-12-24T18:25:26.338Z,6.03
2022-12-24T18:27:55.518Z,5.30
2022-12-24T18:30:27.554Z,3.95
2022-12-24T18:32:56.996Z,4.05
2022-12-24T18:35:26.000Z,6.35
2022-12-24T18:37:54.966Z,4.07
2022-12-24T18:40:21.746Z,34.22
2022-12-24T18:42:50.790Z,18.33
2022-12-24T18:45:19.994Z,13.30
2022-12-24T18:47:51.359Z,7.75
2022-12-24T18:50:20.575Z,6.45
2022-12-24T18:52:50.610Z,5.88
2022-12-24T18:55:19.953Z,5.13
2022-12-24T18:57:46.627Z,5.32
2022-12-24T19:00:13.555Z,4.75
2022-12-24T19:02:44.763Z,3.13
2022-12-24T19:05:11.684Z,6.15
2022-12-24T19:07:42.940Z,6.68
2022-12-24T19:10:12.461Z,6.15
2022-12-24T19:12:43.853Z,6.97
2022-12-24T19:15:13.144Z,3.75
2022-12-24T19:17:39.914Z,5.95
2022-12-24T19:20:11.614Z,3.13
2022-12-24T19:22:38.479Z,6.63
2022-12-24T19:25:05.716Z,4.18
2022-12-24T19:27:32.419Z,5.20
2022-12-24T19:30:01.400Z,4.65
2022-12-24T19:32:30.475Z,5.40
2022-12-24T19:34:57.189Z,4.97
2022-12-24T19:37:28.839Z,3.03
2022-12-24T19:39:55.554Z,6.07
2022-12-24T19:42:22.311Z,4.93
2022-12-24T19:44:48.994Z,4.13
2022-12-24T19:47:18.235Z,5.85
2022-12-24T19:49:47.084Z,3.17
2022-12-24T19:52:18.502Z,4.03
2022-12-24T19:54:46.279Z,7.63
2022-12-24T19:57:15.230Z,5.85
2022-12-24T19:59:41.884Z,5.85
2022-12-24T20:02:11.162Z,5.25
2022-12-24T20:04:40.294Z,4.90
2022-12-24T20:07:07.276Z,4.13
2022-12-24T20:09:37.142Z,4.40
2022-12-24T20:12:09.005Z,4.15
2022-12-24T20:14:35.814Z,3.30
2022-12-24T20:17:02.625Z,6.20
2022-12-24T20:19:29.432Z,3.50
2022-12-24T20:21:56.244Z,3.70
2022-12-24T20:24:25.433Z,6.07
2022-12-24T20:26:54.401Z,9.63
2022-12-24T20:29:23.322Z,4.10
2022-12-24T20:31:52.549Z,3.97
2022-12-24T20:34:19.277Z,4.95
2022-12-24T20:36:46.059Z,8.05
2022-12-24T20:39:17.535Z,6.38
2022-12-24T20:41:44.271Z,3.88
2022-12-24T20:44:11.107Z,7.93
2022-12-24T20:46:37.957Z,5.43
2022-12-24T20:49:07.532Z,6.20
2022-12-24T20:51:36.465Z,5.47
2022-12-24T20:54:08.220Z,4.70
2022-12-24T20:56:34.911Z,7.05
2022-12-24T20:59:04.334Z,6.63
2022-12-24T21:01:34.447Z,5.43
2022-12-24T21:04:05.562Z,5.35
2022-12-24T21:06:35.314Z,5.45
2022-12-24T21:09:05.955Z,4.68
2022-12-24T21:11:50.806Z,5.78
2022-12-24T21:14:23.847Z,5.28
2022-12-24T21:16:52.502Z,4.15
2022-12-24T21:19:24.988Z,5.28
2022-12-24T21:21:51.942Z,4.72
2022-12-24T21:24:23.269Z,4.30
2022-12-24T21:26:50.148Z,5.22
2022-12-24T21:29:16.927Z,4.13
2022-12-24T21:31:43.995Z,6.35
2022-12-24T21:34:13.163Z,4.07
2022-12-24T21:36:40.014Z,23.85
2022-12-24T21:39:09.185Z,33.58
2022-12-24T21:41:38.045Z,13.90
2022-12-24T21:44:04.864Z,5.68
2022-12-24T21:46:34.053Z,5.43
2022-12-24T21:49:19.577Z,5.47
2022-12-24T21:51:48.996Z,4.05
2022-12-24T21:54:31.383Z,7.00
2022-12-24T21:59:48.929Z,5.53
2022-12-24T22:02:19.340Z,5.93
2022-12-24T22:04:46.666Z,5.10
2022-12-24T22:07:45.867Z,5.72
2022-12-24T22:10:33.075Z,3.67
2022-12-24T22:13:06.330Z,3.85
2022-12-24T22:15:42.460Z,6.55
2022-12-24T22:18:11.553Z,5.55
2022-12-24T22:20:41.909Z,6.55
2022-12-24T22:23:14.307Z,6.93
2022-12-24T22:25:42.194Z,5.00
2022-12-24T22:28:09.098Z,4.50
2022-12-24T22:30:45.074Z,5.00
2022-12-24T22:33:11.890Z,7.22
2022-12-24T22:35:42.683Z,6.78
2022-12-24T22:38:10.547Z,10.15
2022-12-24T22:40:41.674Z,6.82
2022-12-24T22:43:13.181Z,8.27
2022-12-24T22:45:42.335Z,7.85
2022-12-24T22:48:09.547Z,5.55
2022-12-24T22:50:39.157Z,4.85
2022-12-24T22:53:08.059Z,4.82
2022-12-24T22:55:34.726Z,4.22
2022-12-24T22:58:04.280Z,5.65
2022-12-24T23:00:46.075Z,4.07
2022-12-24T23:03:15.540Z,4.03
2022-12-24T23:05:44.767Z,5.00
2022-12-24T23:08:14.198Z,6.97
2022-12-24T23:10:43.227Z,14.77
2022-12-24T23:13:31.519Z,14.23
2022-12-24T23:16:04.522Z,6.20
2022-12-24T23:18:34.300Z,8.02
2022-12-24T23:21:08.294Z,5.15
2022-12-24T23:23:37.643Z,9.63
2022-12-24T23:26:16.044Z,9.07
2022-12-24T23:28:45.590Z,6.72
2022-12-24T23:31:15.266Z,6.80
2022-12-24T23:33:42.747Z,4.75
2022-12-24T23:36:10.076Z,4.38
2022-12-24T23:38:36.881Z,6.03
2022-12-24T23:41:06.051Z,5.75
2022-12-24T23:43:33.327Z,5.80
2022-12-24T23:46:00.753Z,5.45
2022-12-24T23:48:27.944Z,6.20
2022-12-24T23:51:08.648Z,7.53
2022-12-24T23:53:38.325Z,6.97
2022-12-24T23:56:06.084Z,6.30
2022-12-24T23:58:35.280Z,11.15
